< Typhoon 198006 1980 Season Typhoon 198008 >
Typhoon 198007 (IDA)
General InformationTrack Information on Google MapsDetailed Wind Information || Disaster Info.ResourceGoogle EarthGE AnimationAtom FeedGeoJSON
Detalied Best Track (Time Zone = UTC)
Year Month Day Hour Lat. Long. Pressure (hPa) Wind (kt) Class Image Chart
1980 7 5 12 11.7 142.0 1004 0 2 -- Chart
1980 7 5 18 11.7 141.5 1002 0 2 -- Chart
1980 7 6 00 11.7 141.0 1002 0 2 -- Chart
1980 7 6 06 12.3 140.0 1002 0 2 -- Chart
1980 7 6 12 13.1 138.8 1000 0 2 -- Chart
1980 7 6 18 13.8 137.6 998 0 2 -- Chart
1980 7 7 00 14.5 136.4 998 40 3 -- Chart
1980 7 7 06 15.7 135.4 994 40 3 -- Chart
1980 7 7 12 16.6 133.8 992 40 3 -- Chart
1980 7 7 18 17.2 132.0 990 45 3 -- Chart
1980 7 8 00 17.7 130.2 990 45 3 -- Chart
1980 7 8 06 18.2 128.6 985 50 4 -- Chart
1980 7 8 12 18.6 127.1 980 55 4 -- Chart
1980 7 8 18 18.9 125.8 980 55 4 -- Chart
1980 7 9 00 19.2 124.5 980 60 4 -- Chart
1980 7 9 06 19.7 123.3 980 60 4 -- Chart
1980 7 9 12 20.4 122.2 980 70 5 -- Chart
1980 7 9 18 20.7 121.5 980 70 5 -- Chart
1980 7 10 00 20.8 120.8 990 55 4 -- Chart
1980 7 10 06 21.2 120.0 990 55 4 -- Chart
1980 7 10 12 21.6 119.3 990 55 4 -- Chart
1980 7 10 18 21.9 118.5 990 55 4 -- Chart
1980 7 11 00 22.2 117.8 985 55 4 -- Chart
1980 7 11 06 22.7 117.3 985 50 4 -- Chart
1980 7 11 12 23.2 116.9 985 50 4 -- Chart
1980 7 11 18 24.0 116.0 992 0 2 -- Chart
1980 7 12 00 24.9 115.1 996 0 2 -- Chart
1980 7 12 06 26.0 115.5 996 0 2 -- Chart
1980 7 12 12 27.0 116.0 998 0 2 -- Chart
1980 7 12 18 28.0 117.3 998 0 2 -- Chart
1980 7 13 00 28.7 118.5 999 0 2 -- Chart
1980 7 13 06 30.6 120.4 996 0 2 -- Chart
1980 7 13 12 33.0 122.0 996 0 6 -- Chart
1980 7 13 18 36.0 125.0 996 0 6 -- Chart
1980 7 14 00 36.0 127.0 996 0 6 -- Chart
1980 7 14 06 37.0 130.0 996 0 6 -- Chart
1980 7 14 12 38.0 135.0 998 0 6 -- Chart
1980 7 14 18 39.0 137.0 1000 0 6 -- Chart
1980 7 15 00 39.0 139.0 1002 0 6 -- Chart
Japan Meteorological Agency Best Track Data | Correction Date : 1992-10-21
< Typhoon 198006 1980 Season Typhoon 198008 >

Help